You are not logged in, Click here to log in
ICAO: RPVM Country: 菲律賓米沙鄢群島
Latitude: 10.3133 Longitude: 123.983
Total Arrivals: 8 Total Departures: 9
Latest Arrival: BR281 (RCTP-RPVM)Lun. Wang Latest Departure: FS71 (RPVM-RKPK)ALAN. LIU
Scenery:
METAR : RPVM 190800Z 24008KT 9999 FEW020 32/24 Q1007 RMK A2974

麥克坦-宿霧國際機場CEB